Time;durP1;ratioP1;P1;durP2;ratioP2;P2;SDS_P1;SDS_P2;PMS_P1;PMS_P2;Temp;Humidity;BMP_temperature;BMP_pressure;BME280_temperature;BME280_humidity;BME280_pressure;Samples;Min_cycle;Max_cycle;Signal;HPM_P1;HPM_P2
2021/06/24 00:00:53;;;;;;;26.48;7.57;;;;;;;;;;5034190;28;20037;-71
2021/06/24 00:03:20;;;;;;;30.83;7.30;;;;;;;;;;5033942;28;20075;-70
2021/06/24 00:05:46;;;;;;;43.90;8.45;;;;;;;;;;5034264;28;20497;-71
2021/06/24 00:08:13;;;;;;;27.67;7.93;;;;;;;;;;5034112;28;20076;-71
2021/06/24 00:10:41;;;;;;;29.40;8.20;;;;;;;;;;5034244;28;20033;-71
2021/06/24 00:13:07;;;;;;;35.15;7.57;;;28.70;55.10;;;;;;5033578;28;20041;-71
2021/06/24 00:15:35;;;;;;;29.55;6.93;;;26.30;64.60;;;;;;5033970;28;20091;-71
2021/06/24 00:18:00;;;;;;;26.75;6.90;;;26.20;64.80;;;;;;5034104;28;20052;-71
2021/06/24 00:20:27;;;;;;;26.02;7.75;;;26.20;65.50;;;;;;5033920;28;20057;-71
2021/06/24 00:22:52;;;;;;;41.47;10.13;;;26.10;65.80;;;;;;5033517;28;20026;-71
2021/06/24 00:25:19;;;;;;;25.42;7.50;;;;;;;;;;5034040;28;20386;-71
2021/06/24 00:27:45;;;;;;;32.55;7.97;;;;;;;;;;5034183;28;20098;-71
2021/06/24 00:30:12;;;;;;;34.65;8.82;;;;;;;;;;5034024;28;20075;-71
2021/06/24 00:32:38;;;;;;;35.67;9.13;;;;;;;;;;5033740;28;20025;-71
2021/06/24 00:35:05;;;;;;;29.35;7.88;;;;;;;;;;5033602;28;20037;-71
2021/06/24 00:37:32;;;;;;;23.60;8.48;;;;;;;;;;5033854;28;20100;-71
2021/06/24 00:39:58;;;;;;;30.15;7.82;;;;;;;;;;5033786;28;20592;-71
2021/06/24 00:42:26;;;;;;;31.80;8.40;;;;;;;;;;5033406;28;20022;-70
2021/06/24 00:44:52;;;;;;;35.03;8.43;;;;;;;;;;5033050;28;20045;-70
2021/06/24 00:47:18;;;;;;;38.33;7.10;;;;;;;;;;5033734;28;20049;-70
2021/06/24 00:49:44;;;;;;;31.33;7.40;;;;;;;;;;5033250;28;20036;-71
2021/06/24 00:52:10;;;;;;;31.20;7.68;;;;;;;;;;5033471;28;20022;-70
2021/06/24 00:54:36;;;;;;;35.22;7.18;;;;;;;;;;5033436;28;20033;-70
2021/06/24 00:57:03;;;;;;;37.83;7.90;;;;;;;;;;5033276;28;20083;-70
2021/06/24 00:59:29;;;;;;;25.00;7.32;;;;;;;;;;5030531;28;20116;-71
2021/06/24 01:01:55;;;;;;;32.67;7.85;;;;;;;;;;5030585;28;20028;-71
2021/06/24 01:04:22;;;;;;;30.48;7.82;;;;;;;;;;5031054;28;20030;-70
2021/06/24 01:06:51;;;;;;;34.53;8.10;;;;;;;;;;5033061;28;20021;-71
2021/06/24 01:09:18;;;;;;;33.13;8.23;;;;;;;;;;5033183;28;20104;-70
2021/06/24 01:11:44;;;;;;;31.42;7.88;;;;;;;;;;5033103;28;20363;-70
2021/06/24 01:14:10;;;;;;;35.78;8.93;;;;;;;;;;5032634;28;20528;-70
2021/06/24 01:16:37;;;;;;;27.92;8.40;;;;;;;;;;5033028;28;20025;-70
2021/06/24 01:19:03;;;;;;;26.02;7.03;;;;;;;;;;5032795;28;20536;-70
2021/06/24 01:21:29;;;;;;;35.92;7.85;;;;;;;;;;5031295;28;20167;-71
2021/06/24 01:23:55;;;;;;;47.05;9.02;;;;;;;;;;5032867;28;20068;-71
2021/06/24 01:26:22;;;;;;;34.90;8.32;;;;;;;;;;5032622;28;20024;-70
2021/06/24 01:28:48;;;;;;;24.55;7.03;;;;;;;;;;5032663;28;20381;-70
2021/06/24 01:31:15;;;;;;;32.47;7.43;;;;;;;;;;5033042;28;20037;-70
2021/06/24 01:33:41;;;;;;;35.75;7.93;;;;;;;;;;5033232;28;20029;-70
2021/06/24 01:36:07;;;;;;;36.35;7.47;;;;;;;;;;5032578;28;20030;-71
2021/06/24 01:38:34;;;;;;;25.60;8.05;;;;;;;;;;5031732;28;20021;-71
2021/06/24 01:41:01;;;;;;;29.10;7.00;;;;;;;;;;5032850;28;20420;-70
2021/06/24 01:43:27;;;;;;;27.42;7.47;;;;;;;;;;5032639;28;20026;-71
2021/06/24 01:45:54;;;;;;;26.67;7.10;;;;;;;;;;5032619;28;20436;-71
2021/06/24 01:48:21;;;;;;;28.80;7.18;;;;;;;;;;5032911;28;20064;-71
2021/06/24 01:50:48;;;;;;;35.88;7.57;;;;;;;;;;5032505;28;20035;-71
2021/06/24 01:53:14;;;;;;;28.55;7.78;;;;;;;;;;5032694;28;20030;-70
2021/06/24 01:55:41;;;;;;;25.88;7.82;;;;;;;;;;5032950;28;20041;-70
2021/06/24 01:58:08;;;;;;;28.60;8.25;;;;;;;;;;5036448;28;20026;-70
2021/06/24 02:00:34;;;;;;;30.40;8.18;;;;;;;;;;5036211;28;20500;-71
2021/06/24 02:03:02;;;;;;;27.15;7.63;;;;;;;;;;5036438;28;20485;-71
2021/06/24 02:05:28;;;;;;;36.50;7.55;;;;;;;;;;5036424;28;20394;-71
2021/06/24 02:07:54;;;;;;;33.40;8.02;;;;;;;;;;5036353;28;20025;-70
2021/06/24 02:10:20;;;;;;;27.08;7.93;;;;;;;;;;5036653;28;20113;-71
2021/06/24 02:12:46;;;;;;;32.22;7.45;;;;;;;;;;5036129;28;20032;-71
2021/06/24 02:15:14;;;;;;;32.42;8.60;;;;;;;;;;5035996;28;20069;-70
2021/06/24 02:17:40;;;;;;;28.48;7.43;;;;;;;;;;5036126;28;20033;-70
2021/06/24 02:20:08;;;;;;;27.15;7.00;;;;;;;;;;5036195;28;20026;-71
2021/06/24 02:22:34;;;;;;;41.33;9.77;;;;;;;;;;5035774;28;20425;-71
2021/06/24 02:25:00;;;;;;;37.53;8.00;;;;;;;;;;5036048;28;20485;-71
2021/06/24 02:27:26;;;;;;;41.25;7.78;;;;;;;;;;5036080;28;20537;-71
2021/06/24 02:29:53;;;;;;;36.28;7.65;;;;;;;;;;5036036;28;20030;-71
2021/06/24 02:32:19;;;;;;;37.83;8.02;;;;;;;;;;5035722;28;20029;-71
2021/06/24 02:34:47;;;;;;;27.65;7.00;;;;;;;;;;5035951;28;20056;-71
2021/06/24 02:37:13;;;;;;;33.30;6.82;;;;;;;;;;5035763;28;20026;-71
2021/06/24 02:39:39;;;;;;;29.75;7.50;;;;;;;;;;5035921;28;20529;-70
2021/06/24 02:42:05;;;;;;;27.77;6.88;;;;;;;;;;5035710;28;20057;-70
2021/06/24 02:44:31;;;;;;;32.80;7.15;;;;;;;;;;5035630;28;20091;-71
2021/06/24 02:46:57;;;;;;;33.40;7.45;;;;;;;;;;5035786;28;20021;-70
2021/06/24 02:49:23;;;;;;;33.75;7.45;;;;;;;;;;5034405;28;20029;-71
2021/06/24 02:51:49;;;;;;;38.65;7.82;;;;;;;;;;5035511;28;20155;-71
2021/06/24 02:54:16;;;;;;;25.55;6.55;;;;;;;;;;5035155;28;20034;-70
2021/06/24 02:56:43;;;;;;;33.28;7.28;;;;;;;;;;5035523;28;20105;-70
2021/06/24 02:59:09;;;;;;;30.13;7.13;;;;;;;;;;5035571;28;20025;-70
2021/06/24 03:01:36;;;;;;;30.52;6.75;;;;;;;;;;5035495;28;20388;-70
2021/06/24 03:04:02;;;;;;;26.23;6.35;;;;;;;;;;5035386;28;20022;-70
2021/06/24 03:06:28;;;;;;;29.38;7.35;;;;;;;;;;5035137;28;20363;-71
2021/06/24 03:08:54;;;;;;;28.40;6.72;;;;;;;;;;5035222;28;20493;-71
2021/06/24 03:11:20;;;;;;;27.23;7.30;;;;;;;;;;5034096;28;20440;-70
2021/06/24 03:13:50;;;;;;;30.98;7.50;;;;;;;;;;5034979;28;20081;-71
2021/06/24 03:16:16;;;;;;;27.88;7.28;;;;;;;;;;5035274;28;20034;-70
2021/06/24 03:18:45;;;;;;;28.45;7.13;;;;;;;;;;5034893;28;20473;-71
2021/06/24 03:21:11;;;;;;;36.05;7.97;;;;;;;;;;5035124;28;20100;-70
2021/06/24 03:23:37;;;;;;;35.63;7.88;;;;;;;;;;5035124;28;20052;-70
2021/06/24 03:26:03;;;;;;;28.08;7.35;;;;;;;;;;5034864;28;20038;-71
2021/06/24 03:28:29;;;;;;;30.88;8.48;;;;;;;;;;5034902;28;20032;-70
2021/06/24 03:30:55;;;;;;;29.90;7.97;;;;;;;;;;5035030;28;20025;-71
2021/06/24 03:33:21;;;;;;;30.05;6.93;;;;;;;;;;5034739;28;20022;-71
2021/06/24 03:35:49;;;;;;;30.10;8.55;;;;;;;;;;5034529;28;20381;-71
2021/06/24 03:38:16;;;;;;;25.65;6.80;;;;;;;;;;5034780;28;20018;-71
2021/06/24 03:40:42;;;;;;;32.63;7.68;;;;;;;;;;5034907;28;20029;-70
2021/06/24 03:43:08;;;;;;;33.65;6.85;;;;;;;;;;5034694;28;20032;-70
2021/06/24 03:45:34;;;;;;;40.15;7.78;;;;;;;;;;5034550;28;20069;-70
2021/06/24 03:48:00;;;;;;;29.77;7.43;;;;;;;;;;5034392;28;20025;-70
2021/06/24 03:50:27;;;;;;;31.30;7.97;;;;;;;;;;5034445;28;20036;-70
2021/06/24 03:52:53;;;;;;;36.22;7.78;;;;;;;;;;5034635;28;20037;-70
2021/06/24 03:55:35;;;;;;;29.08;7.25;;;;;;;;;;5034359;28;20033;-71
2021/06/24 03:58:01;;;;;;;28.92;7.00;;;;;;;;;;5034439;28;20032;-70
2021/06/24 04:00:27;;;;;;;33.72;8.88;;;;;;;;;;5034232;28;20037;-71
2021/06/24 04:02:53;;;;;;;37.47;8.07;;;;;;;;;;5034090;28;20088;-70
2021/06/24 04:05:19;;;;;;;34.38;7.93;;;;;;;;;;5034271;28;20465;-71
2021/06/24 04:07:45;;;;;;;34.67;7.30;;;;;;;;;;5033995;28;20490;-70
2021/06/24 04:10:12;;;;;;;32.05;7.82;;;;;;;;;;5034164;28;20159;-70
2021/06/24 04:12:38;;;;;;;30.63;7.50;;;;;;;;;;5034140;28;20104;-70
2021/06/24 04:15:05;;;;;;;32.40;7.97;;;;;;;;;;5033799;28;20057;-70
2021/06/24 04:17:31;;;;;;;27.52;8.05;;;;;;;;;;5033827;28;20032;-70
2021/06/24 04:19:57;;;;;;;30.23;8.45;;;;;;;;;;5033266;28;20037;-70
2021/06/24 04:22:23;;;;;;;29.25;8.15;;;;;;;;;;5033790;28;20363;-70
2021/06/24 04:24:49;;;;;;;34.05;8.13;;;;;;;;;;5034174;28;20089;-69
2021/06/24 04:27:15;;;;;;;31.92;8.27;;;;;;;;;;5033856;28;20026;-70
2021/06/24 04:29:41;;;;;;;24.27;6.63;;;;;;;;;;5032521;28;20029;-71
2021/06/24 04:32:07;;;;;;;31.52;8.18;;;;;;;;;;5033151;28;20017;-71
2021/06/24 04:34:33;;;;;;;28.90;7.82;;;;;;;;;;5032849;28;20030;-71
2021/06/24 04:36:59;;;;;;;44.25;8.15;;;;;;;;;;5033450;28;20029;-71
2021/06/24 04:39:25;;;;;;;46.22;7.90;;;;;;;;;;5033604;28;20032;-70
2021/06/24 04:41:51;;;;;;;43.55;8.35;;;;;;;;;;5033180;28;20033;-70
2021/06/24 04:44:18;;;;;;;30.42;7.97;;;;;;;;;;5033509;28;20377;-71
2021/06/24 04:46:44;;;;;;;29.70;8.82;;;;;;;;;;5033301;28;20025;-71
2021/06/24 04:49:10;;;;;;;37.50;8.57;;;;;;;;;;5033195;28;20072;-71
2021/06/24 04:51:36;;;;;;;24.27;7.78;;;;;;;;;;5032091;28;20072;-71
2021/06/24 04:54:03;;;;;;;34.40;8.10;;;;;;;;;;5033222;28;20478;-71
2021/06/24 04:56:29;;;;;;;35.13;8.52;;;;;;;;;;5033180;28;20029;-70
2021/06/24 04:58:55;;;;;;;44.40;9.27;;;;;;;;;;5033035;28;20132;-71
2021/06/24 05:01:21;;;;;;;32.70;8.45;;;;;;;;;;5033296;28;20061;-71
2021/06/24 05:03:47;;;;;;;40.88;7.85;;;;;;;;;;5033099;28;20116;-71
2021/06/24 05:06:15;;;;;;;39.70;8.60;;;;;;;;;;5033217;28;20029;-71
2021/06/24 05:08:41;;;;;;;32.17;8.50;;;;;;;;;;5033156;28;20465;-71
2021/06/24 05:11:07;;;;;;;32.15;7.93;;;;;;;;;;5033101;28;20025;-71
2021/06/24 05:13:33;;;;;;;42.08;8.48;;;;;;;;;;5032882;28;20045;-71
2021/06/24 05:16:00;;;;;;;27.85;7.57;;;;;;;;;;5031952;28;20462;-71
2021/06/24 05:18:26;;;;;;;38.35;7.45;;;;;;;;;;5033370;28;20029;-71
2021/06/24 05:20:52;;;;;;;33.90;7.78;;;;;;;;;;5032850;28;20028;-71
2021/06/24 05:23:19;;;;;;;35.65;7.90;;;;;;;;;;5032801;28;20121;-71
2021/06/24 05:25:46;;;;;;;35.55;7.47;;;;;;;;;;5033080;28;20049;-72
2021/06/24 05:28:12;;;;;;;27.70;6.38;;;;;;;;;;5033133;28;20560;-71
2021/06/24 05:30:38;;;;;;;35.83;8.60;;;;;;;;;;5034805;28;20029;-71
2021/06/24 05:33:05;;;;;;;34.35;6.63;;;;;;;;;;5036774;28;20044;-71
2021/06/24 05:35:31;;;;;;;27.42;6.55;;;;;;;;;;5036952;28;20040;-71
2021/06/24 05:37:58;;;;;;;31.15;7.68;;;;;;;;;;5037299;28;20100;-71
2021/06/24 05:40:24;;;;;;;35.67;6.88;;;;;;;;;;5036988;28;20473;-71
2021/06/24 05:42:50;;;;;;;31.35;6.43;;;;;;;;;;5037259;28;20030;-71
2021/06/24 05:45:16;;;;;;;42.35;7.95;;;;;;;;;;5036690;28;20029;-71
2021/06/24 05:47:43;;;;;;;32.88;7.38;;;;;;;;;;5036469;28;20049;-71
2021/06/24 05:50:09;;;;;;;33.17;7.28;;;;;;;;;;5036839;28;20028;-71
2021/06/24 05:52:38;;;;;;;31.25;6.95;;;;;;;;;;5036871;28;20030;-71
2021/06/24 05:55:05;;;;;;;22.60;6.90;;;;;;;;;;5036675;28;20040;-71
2021/06/24 05:57:31;;;;;;;37.22;7.95;;;;;;;;;;5036547;28;20363;-70
2021/06/24 05:59:59;;;;;;;35.83;7.57;;;;;;;;;;5036385;28;20029;-71
2021/06/24 06:02:25;;;;;;;49.70;7.45;;;;;;;;;;5036422;28;20470;-71
2021/06/24 06:04:51;;;;;;;33.42;6.93;;;;;;;;;;5036477;28;20029;-71
2021/06/24 06:07:17;;;;;;;39.55;6.28;;;;;;;;;;5036217;28;20556;-71
2021/06/24 06:09:43;;;;;;;29.50;6.72;;;;;;;;;;5036140;28;20515;-71
2021/06/24 06:12:09;;;;;;;34.22;6.75;;;;;;;;;;5035987;28;20013;-70
2021/06/24 06:14:35;;;;;;;39.33;8.18;;;;;;;;;;5035925;28;20128;-70
2021/06/24 06:17:01;;;;;;;43.35;6.88;;;;;;;;;;5036101;28;20029;-71
2021/06/24 06:19:27;;;;;;;32.65;7.15;;;;;;;;;;5035795;28;20071;-71
2021/06/24 06:21:53;;;;;;;27.95;6.47;;;;;;;;;;5035836;28;20025;-71
2021/06/24 06:24:20;;;;;;;30.58;6.47;;;;;;;;;;5035667;28;20049;-71
2021/06/24 06:26:46;;;;;;;37.13;7.18;;;;;;;;;;5035872;28;20032;-71
2021/06/24 06:29:12;;;;;;;36.63;7.47;;;;;;;;;;5035731;28;20018;-71
2021/06/24 06:31:39;;;;;;;35.75;7.90;;;;;;;;;;5035652;28;20032;-70
2021/06/24 06:34:06;;;;;;;35.53;7.10;;;;;;;;;;5035197;28;20038;-71
2021/06/24 06:36:32;;;;;;;38.85;6.50;;;;;;;;;;5034554;28;20022;-71
2021/06/24 06:38:58;;;;;;;31.02;7.00;;;;;;;;;;5035584;28;20030;-71
2021/06/24 06:41:24;;;;;;;35.95;6.43;;;;;;;;;;5034852;28;20095;-70
2021/06/24 06:43:50;;;;;;;28.42;7.40;;;;;;;;;;5049817;23;20418;-69
2021/06/24 06:46:16;;;;;;;45.17;7.45;;;;;;;;;;5035841;28;20030;-69
2021/06/24 06:48:42;;;;;;;45.50;7.95;;;;;;;;;;5035834;28;20544;-68
2021/06/24 06:51:09;;;;;;;44.92;7.93;;;;;;;;;;5035506;28;20473;-69
2021/06/24 06:53:35;;;;;;;39.03;7.50;;;;;;;;;;5035363;28;20079;-69
2021/06/24 06:56:01;;;;;;;43.97;6.75;;;;;;;;;;5035506;28;20036;-69
2021/06/24 06:58:27;;;;;;;44.85;8.48;;;;;;;;;;5035410;28;20025;-69
2021/06/24 07:00:53;;;;;;;39.45;6.85;;;;;;;;;;5035648;28;20087;-69
2021/06/24 07:03:19;;;;;;;42.45;7.40;;;;;;;;;;5035169;28;20033;-69
2021/06/24 07:05:45;;;;;;;40.85;6.43;;;;;;;;;;5035440;28;20116;-69
2021/06/24 07:08:11;;;;;;;36.58;7.90;;;;;;;;;;5035232;28;20033;-69
2021/06/24 07:10:38;;;;;;;39.10;6.57;;;;;;;;;;5035112;28;20033;-69
2021/06/24 07:13:04;;;;;;;44.40;7.75;;;;;;;;;;5035110;28;20029;-69
2021/06/24 07:15:30;;;;;;;40.88;7.47;;;;;;;;;;5035123;28;20034;-69
2021/06/24 07:17:56;;;;;;;43.38;7.75;;;;;;;;;;5034940;28;20025;-69
2021/06/24 07:20:22;;;;;;;38.42;7.95;;;;;;;;;;5034954;28;20061;-69
2021/06/24 07:22:48;;;;;;;43.55;7.50;;;;;;;;;;5034588;28;20039;-69
2021/06/24 07:25:16;;;;;;;43.00;8.75;;;;;;;;;;5034678;28;20109;-69
2021/06/24 07:27:42;;;;;;;37.85;8.13;;;;;;;;;;5034779;28;20084;-69
2021/06/24 07:30:08;;;;;;;40.08;7.50;;;;;;;;;;5034512;28;20071;-69
2021/06/24 07:32:34;;;;;;;51.40;8.25;;;;;;;;;;5034181;28;20025;-69
2021/06/24 07:35:00;;;;;;;50.08;8.25;;;;;;;;;;5034417;28;20200;-69
2021/06/24 07:37:26;;;;;;;48.35;8.77;;;;;;;;;;5034443;28;20026;-69
2021/06/24 07:39:53;;;;;;;44.70;7.50;;;;;;;;;;5034252;28;20105;-69
2021/06/24 07:42:19;;;;;;;47.25;7.57;;;;;;;;;;5033506;28;20043;-69
2021/06/24 07:44:46;;;;;;;44.88;7.32;;;;;;;;;;5032059;28;20563;-69
2021/06/24 07:47:12;;;;;;;55.72;9.57;;;;;;;;;;5033607;28;20412;-69
2021/06/24 07:49:38;;;;;;;101.93;16.48;;;;;;;;;;5034463;28;20026;-70
2021/06/24 07:52:04;;;;;;;71.43;14.75;;;;;;;;;;5034396;28;20080;-69
2021/06/24 07:54:30;;;;;;;49.60;9.07;;;;;;;;;;5033356;28;20021;-69
2021/06/24 07:56:56;;;;;;;48.55;9.52;;;;;;;;;;5034596;28;20074;-69
2021/06/24 07:59:23;;;;;;;47.67;8.25;;;;;;;;;;5034231;28;20022;-68
2021/06/24 08:01:49;;;;;;;103.45;10.10;;;;;;;;;;5034410;28;20036;-70
2021/06/24 08:04:15;;;;;;;68.85;9.65;;;;;;;;;;5034151;28;20382;-68
2021/06/24 08:06:41;;;;;;;55.28;8.77;;;;;;;;;;5034042;28;20022;-68
2021/06/24 08:09:10;;;;;;;52.55;8.98;;;;;;;;;;5034453;28;20104;-68
2021/06/24 08:11:36;;;;;;;48.50;8.40;;;;;;;;;;5033975;28;20028;-68
2021/06/24 08:14:02;;;;;;;52.10;8.77;;;;;;;;;;5033927;28;20022;-68
2021/06/24 08:16:29;;;;;;;54.42;8.60;;;;;;;;;;5033406;28;20084;-68
2021/06/24 08:18:55;;;;;;;49.80;9.57;;;;;;;;;;5033648;28;20018;-68
2021/06/24 08:21:21;;;;;;;39.05;8.52;;;;;;;;;;5033814;28;20016;-68
2021/06/24 08:23:47;;;;;;;48.63;8.50;;;;;;;;;;5033640;28;20025;-68
2021/06/24 08:26:13;;;;;;;42.17;8.80;;;;;;;;;;5033721;28;20100;-68
2021/06/24 08:28:39;;;;;;;53.47;8.38;;;;;;;;;;5033740;28;20545;-68
2021/06/24 08:31:05;;;;;;;59.15;8.70;;;;;;;;;;5033660;28;20113;-68
2021/06/24 08:33:31;;;;;;;41.45;8.48;;;;;;;;;;5033343;28;20044;-68
2021/06/24 08:35:57;;;;;;;47.03;8.32;;;;;;;;;;5033706;28;20075;-68
2021/06/24 08:38:23;;;;;;;59.90;9.85;;;;;;;;;;5033688;28;20029;-69
2021/06/24 08:40:49;;;;;;;53.78;10.45;;;;;;;;;;5033562;28;20022;-68
2021/06/24 08:43:15;;;;;;;54.17;8.95;;;;;;;;;;5033289;28;20080;-68
2021/06/24 08:45:42;;;;;;;40.38;7.90;;;;;;;;;;5033187;28;20029;-68
2021/06/24 08:48:16;;;;;;;40.22;8.35;;;;;;;;;;5032933;28;20029;-68
2021/06/24 08:50:49;;;;;;;51.92;9.18;;;;;;;;;;5031944;28;20025;-68
2021/06/24 08:53:19;;;;;;;60.25;9.05;;;;;;;;;;5033194;28;20026;-68
2021/06/24 08:55:47;;;;;;;59.47;8.98;;;;;;;;;;5033436;28;20059;-68
2021/06/24 08:58:13;;;;;;;53.60;9.25;;;;;;;;;;5033051;28;20029;-68
2021/06/24 09:00:40;;;;;;;55.33;9.25;;;;;;;;;;5032979;28;20564;-68
2021/06/24 09:03:15;;;;;;;60.03;9.68;;;;;;;;;;5032859;28;20061;-68
2021/06/24 09:05:51;;;;;;;58.45;9.50;;;;;;;;;;5032714;28;20032;-68
2021/06/24 09:08:23;;;;;;;53.03;9.30;;;;;;;;;;5032953;28;20030;-68
2021/06/24 09:11:08;;;;;;;46.20;8.68;;;;;;;;;;5032994;28;20064;-68
2021/06/24 09:13:34;;;;;;;52.17;8.93;;;;;;;;;;5032929;28;20029;-68
2021/06/24 09:16:06;;;;;;;63.83;9.95;;;;;;;;;;5032995;28;20045;-68
2021/06/24 09:18:32;;;;;;;63.50;9.17;;;;;;;;;;5033293;28;20036;-68
2021/06/24 09:20:58;;;;;;;54.50;9.48;;;;;;;;;;5033309;28;20268;-69
2021/06/24 09:23:25;;;;;;;56.67;9.32;;;;;;;;;;5032888;28;20033;-68
2021/06/24 09:26:14;;;;;;;50.78;9.15;;;;;;;;;;5032357;28;20116;-68
2021/06/24 09:28:41;;;;;;;66.93;9.50;;;;;;;;;;5032148;28;20021;-68
2021/06/24 09:31:22;;;;;;;53.97;9.73;;;;;;;;;;5032948;28;20108;-68
2021/06/24 09:33:49;;;;;;;66.68;9.25;;;;;;;;;;5032482;28;20033;-68
2021/06/24 09:36:30;;;;;;;56.70;10.38;;;;;;;;;;5032292;28;20489;-68
2021/06/24 09:38:56;;;;;;;;;;;;;;;;;;5032394;28;20056;-68
2021/06/24 09:41:22;;;;;;;62.38;11.15;;;;;;;;;;5030920;28;19905;-68
2021/06/24 09:43:48;;;;;;;47.40;8.70;;;;;;;;;;5032260;28;20046;-69
2021/06/24 09:46:17;;;;;;;50.65;7.78;;;;;;;;;;5032121;28;20030;-69
2021/06/24 09:48:44;;;;;;;50.60;9.10;;;;;;;;;;5032173;28;20021;-71
2021/06/24 09:51:14;;;;;;;55.67;8.90;;;;;;;;;;5032199;28;20026;-69
2021/06/24 09:54:13;;;;;;;72.70;11.45;;;;;;;;;;5032643;28;20025;-68
2021/06/24 09:56:54;;;;;;;58.03;8.55;;;;;;;;;;5027801;28;20124;-73
2021/06/24 09:59:30;;;;;;;56.70;9.05;;;;;;;;;;5032727;28;20053;-70
2021/06/24 10:01:56;;;;;;;56.85;9.27;;;;;;;;;;5032104;28;20025;-68
2021/06/24 10:04:28;;;;;;;50.78;9.40;;;;;;;;;;5032069;28;20436;-69
2021/06/24 10:06:55;;;;;;;58.15;8.07;;;;;;;;;;5032239;28;20025;-68
2021/06/24 10:09:22;;;;;;;56.38;9.13;;;;;;;;;;5031890;28;20029;-68
2021/06/24 10:11:48;;;;;;;53.60;8.35;;;;;;;;;;5032471;28;20062;-68
2021/06/24 10:14:15;;;;;;;61.35;9.48;;;;;;;;;;5032176;28;20476;-68
2021/06/24 10:16:45;;;;;;;57.92;8.27;;;;;;;;;;5031819;28;20493;-67
2021/06/24 10:19:15;;;;;;;59.15;9.35;;;;;;;;;;5036092;28;20037;-68
2021/06/24 10:21:42;;;;;;;55.25;9.80;;;;;;;;;;5036013;28;20029;-68
2021/06/24 10:24:09;;;;;;;52.95;8.32;;;;;;;;;;5036346;28;20025;-68
2021/06/24 10:26:38;;;;;;;60.58;9.77;;;;;;;;;;5036053;28;20030;-68
2021/06/24 10:29:08;;;;;;;56.63;9.00;;;;;;;;;;5035974;28;20033;-67
2021/06/24 10:31:35;;;;;;;59.60;9.50;;;;;;;;;;5035178;28;20063;-68
2021/06/24 10:34:03;;;;;;;47.35;7.60;;;;;;;;;;5034672;28;20018;-68
2021/06/24 10:36:30;;;;;;;55.72;8.85;;;;;;;;;;5035748;28;20048;-68
2021/06/24 10:38:57;;;;;;;52.00;7.55;;;;;;;;;;5035887;28;20517;-68
2021/06/24 10:41:24;;;;;;;62.28;10.30;;;;;;;;;;5035752;28;20033;-68
2021/06/24 10:43:52;;;;;;;47.75;8.45;;;;;;;;;;5035586;28;20045;-67
2021/06/24 10:46:26;;;;;;;64.18;9.13;;;;;;;;;;5033978;28;20040;-68
2021/06/24 10:48:53;;;;;;;60.60;8.35;;;;;;;;;;5032422;28;20033;-68
2021/06/24 10:51:19;;;;;;;55.40;8.63;;;;;;;;;;5032792;28;20046;-68
2021/06/24 10:53:49;;;;;;;62.97;9.82;;;;;;;;;;5034457;28;20461;-71
2021/06/24 10:56:22;;;;;;;59.90;8.07;;;;;;;;;;5035841;28;20026;-69
2021/06/24 10:58:48;;;;;;;45.20;7.38;;;;;;;;;;5035361;28;20025;-68
2021/06/24 11:01:15;;;;;;;55.35;8.27;;;;;;;;;;5035355;28;20377;-68
2021/06/24 11:03:43;;;;;;;49.50;8.57;;;;;;;;;;5035182;28;20460;-68
2021/06/24 11:06:10;;;;;;;52.40;9.57;;;;;;;;;;5035521;28;20033;-68
2021/06/24 11:08:39;;;;;;;82.63;12.30;;;;;;;;;;5035595;28;20030;-68
2021/06/24 11:11:10;;;;;;;59.53;8.25;;;;;;;;;;5035101;28;20018;-68
2021/06/24 11:13:36;;;;;;;48.50;9.25;;;;;;;;;;5034896;28;20021;-68
2021/06/24 11:16:03;;;;;;;61.25;8.20;;;;;;;;;;5034839;28;20030;-69
2021/06/24 11:18:32;;;;;;;64.70;8.90;;;;;;;;;;5034948;28;20105;-65
2021/06/24 11:21:06;;;;;;;58.00;9.43;;;;;;;;;;5035308;28;20374;-65
2021/06/24 11:23:34;;;;;;;68.25;8.20;;;;;;;;;;5035131;28;20025;-65
2021/06/24 11:26:06;;;;;;;67.63;9.43;;;;;;;;;;5034997;28;20043;-65
2021/06/24 11:28:54;;;;;;;67.47;9.85;;;;;;;;;;5034561;28;20104;-66
2021/06/24 11:31:23;;;;;;;56.92;9.77;;;;;;;;;;5034892;28;20053;-66
2021/06/24 11:36:27;;;;;;;333.95;26.50;;;;;;;;;;5034699;28;20033;-65
2021/06/24 11:38:53;;;;;;;53.08;8.88;;;;;;;;;;5034566;28;20385;-65
2021/06/24 11:41:20;;;;;;;55.15;8.90;;;;;;;;;;5034512;28;20148;-66
2021/06/24 11:44:06;;;;;;;64.13;8.68;;;;;;;;;;5034160;28;20120;-65
2021/06/24 11:46:34;;;;;;;53.42;8.25;;;;;;;;;;5034261;28;20025;-66
2021/06/24 11:49:15;;;;;;;63.33;8.00;;;;;;;;;;5034592;28;20029;-65
2021/06/24 12:05:07;;;;;;;65.05;8.50;;;;;;;;;;5034233;28;20037;-66
2021/06/24 12:07:34;;;;;;;49.67;8.60;;;;;;;;;;5034200;28;20032;-66
2021/06/24 12:10:00;;;;;;;44.45;8.10;;;;;;;;;;5034180;28;20033;-67
2021/06/24 12:12:27;;;;;;;55.42;9.10;;;;;;;;;;5034067;28;20076;-65
2021/06/24 12:14:58;;;;;;;58.40;9.85;;;;;;;;;;5034020;28;20014;-66
2021/06/24 12:17:28;;;;;;;52.93;7.97;;;;;;;;;;5033970;28;20029;-65
2021/06/24 12:20:04;;;;;;;55.72;8.30;;;;;;;;;;5033894;28;20053;-66
2021/06/24 12:22:37;;;;;;;57.40;10.20;;;;;;;;;;5033579;28;20021;-66
2021/06/24 12:25:05;;;;;;;54.60;8.60;;;;;;;;;;5033642;28;20040;-66
2021/06/24 12:27:43;;;;;;;55.40;8.73;;;;;;;;;;5033683;28;20021;-66
2021/06/24 12:30:32;;;;;;;56.65;8.40;;;;;;;;;;5033611;28;20025;-67
2021/06/24 12:32:58;;;;;;;54.70;8.95;;;;;;;;;;5030868;28;20432;-66
2021/06/24 12:35:27;;;;;;;57.10;8.57;;;;;;;;;;5033540;28;20041;-66
2021/06/24 12:37:54;;;;;;;52.70;8.20;;;;;;;;;;5033821;28;20032;-66
2021/06/24 12:40:21;;;;;;;54.97;8.30;;;;;;;;;;5032910;28;20044;-66
2021/06/24 12:42:51;;;;;;;49.78;8.57;;;;;;;;;;5033250;28;20060;-66
2021/06/24 12:45:18;;;;;;;43.92;7.50;;;;;;;;;;5033457;28;20506;-66
2021/06/24 12:47:45;;;;;;;42.25;6.78;;;;;;;;;;5033432;28;20061;-66
2021/06/24 12:50:13;;;;;;;46.22;7.15;;;;;;;;;;5033506;28;20032;-67
2021/06/24 12:53:13;;;;;;;58.35;7.75;;;;;;;;;;5032766;28;20044;-66
2021/06/24 12:55:42;;;;;;;51.65;8.48;;;;;;;;;;5021527;28;20370;-66
2021/06/24 12:58:08;;;;;;;44.85;8.15;;;;;;;;;;5033245;28;20168;-66
2021/06/24 13:00:34;;;;;;;44.40;7.63;;;;;;;;;;5033064;28;20100;-66
2021/06/24 13:03:01;;;;;;;54.33;7.43;;;;;;;;;;5033247;28;20026;-66
2021/06/24 13:05:27;;;;;;;42.47;8.05;;;;;;;;;;5031845;28;20048;-67
2021/06/24 13:07:58;;;;;;;47.40;6.57;;;;;;;;;;5032692;28;20044;-67
2021/06/24 13:10:24;;;;;;;44.40;7.70;;;;;;;;;;5032976;28;20473;-69
2021/06/24 13:12:50;;;;;;;60.90;7.68;;;;;;;;;;5032410;28;20025;-66
2021/06/24 13:15:32;;;;;;;54.60;8.02;;;;;;;;;;5033010;28;20026;-69
2021/06/24 13:17:59;;;;;;;50.47;7.50;;;;;;;;;;5032318;28;20394;-66
2021/06/24 13:20:25;;;;;;;41.28;7.15;;;;;;;;;;5031481;28;20052;-66
2021/06/24 13:22:51;;;;;;;52.22;6.80;;;;;;;;;;5032520;28;20025;-66
2021/06/24 13:25:21;;;;;;;43.00;6.13;;;;;;;;;;5032583;28;20068;-66
2021/06/24 13:27:48;;;;;;;50.25;7.90;;;;;;;;;;5032585;28;20397;-66
2021/06/24 13:30:17;;;;;;;51.80;7.40;;;26.10;66.20;;;;;;5032758;28;20075;-66
2021/06/24 13:32:45;;;;;;;51.03;8.02;;;32.20;47.50;;;;;;5032704;28;20026;-66
2021/06/24 13:35:14;;;;;;;49.97;7.97;;;32.10;47.70;;;;;;5032945;28;20064;-66
2021/06/24 13:37:56;;;;;;;44.90;6.88;;;32.00;47.90;;;;;;5032701;28;20478;-65
2021/06/24 13:40:30;;;;;;;44.10;6.30;;;32.00;46.30;;;;;;5032949;28;20026;-66
2021/06/24 13:43:01;;;;;;;47.97;8.38;;;32.00;46.20;;;;;;5032816;28;20526;-66
2021/06/24 13:45:27;;;;;;;38.47;7.70;;;32.00;47.20;;;;;;5032951;28;20359;-66
2021/06/24 13:47:52;;;;;;;48.50;6.55;;;32.00;47.90;;;;;;5032812;28;20020;-66
2021/06/24 13:50:18;;;;;;;42.75;7.05;;;;;;;;;;5028751;28;20124;-66
2021/06/24 13:52:44;;;;;;;34.15;7.10;;;;;;;;;;5035771;28;20052;-65
2021/06/24 13:55:11;;;;;;;46.70;7.03;;;;;;;;;;5036673;28;20052;-66
2021/06/24 13:57:37;;;;;;;49.33;7.32;;;;;;;;;;5036732;28;20076;-66
2021/06/24 14:00:04;;;;;;;39.67;6.78;;;;;;;;;;5036481;28;20104;-66
2021/06/24 14:02:31;;;;;;;39.17;6.72;;;;;;;;;;5036139;28;20023;-66
2021/06/24 14:04:57;;;;;;;43.38;7.07;;;;;;;;;;5036279;28;20040;-66
2021/06/24 14:07:23;;;;;;;52.20;8.77;;;32.00;47.10;;;;;;5036078;28;20021;-66
2021/06/24 14:09:48;;;;;;;48.63;6.82;;;32.20;46.00;;;;;;5036121;28;20392;-66
2021/06/24 14:12:14;;;;;;;39.05;7.20;;;32.10;46.60;;;;;;5036219;28;20021;-66
2021/06/24 14:14:40;;;;;;;41.67;7.20;;;32.10;45.40;;;;;;5036444;28;20029;-66
2021/06/24 14:17:06;;;;;;;39.10;6.28;;;32.00;45.60;;;;;;5036137;28;20022;-65
2021/06/24 14:19:32;;;;;;;41.53;5.82;;;32.00;46.20;;;;;;5036241;28;20033;-67
2021/06/24 14:22:01;;;;;;;39.00;6.88;;;32.00;45.50;;;;;;5031798;28;20139;-69
2021/06/24 14:24:27;;;;;;;39.10;6.40;;;32.00;46.20;;;;;;5034401;28;20034;-68
2021/06/24 14:26:56;;;;;;;43.13;6.38;;;;;;;;;;5035388;28;20496;-66
2021/06/24 14:29:23;;;;;;;32.35;5.93;;;;;;;;;;5035273;28;20025;-66
2021/06/24 14:31:49;;;;;;;46.00;6.25;;;;;;;;;;5035949;28;20029;-66
2021/06/24 14:34:14;;;;;;;41.72;5.60;;;32.00;46.10;;;;;;5035760;28;20063;-68
2021/06/24 14:36:41;;;;;;;41.03;5.53;;;32.00;44.10;;;;;;5035755;28;20033;-67
2021/06/24 14:39:09;;;;;;;30.05;5.07;;;32.00;43.70;;;;;;5035920;28;20022;-66